sensor_id;sensor_type;location;lat;lon;timestamp;temperature;humidity
7720;DHT22;3902;49.474;8.616;2023-04-22T00:00:36;14.30;99.90
7720;DHT22;3902;49.474;8.616;2023-04-22T00:03:02;14.30;99.90
7720;DHT22;3902;49.474;8.616;2023-04-22T00:05:28;14.30;99.90
7720;DHT22;3902;49.474;8.616;2023-04-22T00:07:54;14.20;99.90
7720;DHT22;3902;49.474;8.616;2023-04-22T00:10:20;14.20;99.90
7720;DHT22;3902;49.474;8.616;2023-04-22T00:12:45;14.20;99.90
7720;DHT22;3902;49.474;8.616;2023-04-22T00:15:11;14.10;99.90
7720;DHT22;3902;49.474;8.616;2023-04-22T00:17:37;14.10;99.90
7720;DHT22;3902;49.474;8.616;2023-04-22T00:20:03;14.10;99.90
7720;DHT22;3902;49.474;8.616;2023-04-22T00:22:28;14.10;99.90
7720;DHT22;3902;49.474;8.616;2023-04-22T00:24:54;14.10;99.90
7720;DHT22;3902;49.474;8.616;2023-04-22T00:27:19;14.10;99.90
7720;DHT22;3902;49.474;8.616;2023-04-22T00:29:45;14.10;99.90
7720;DHT22;3902;49.474;8.616;2023-04-22T00:32:11;14.10;99.90
7720;DHT22;3902;49.474;8.616;2023-04-22T00:34:38;14.10;99.90
7720;DHT22;3902;49.474;8.616;2023-04-22T00:37:03;14.00;99.90
7720;DHT22;3902;49.474;8.616;2023-04-22T00:39:29;14.10;99.90
7720;DHT22;3902;49.474;8.616;2023-04-22T00:41:55;14.10;99.90
7720;DHT22;3902;49.474;8.616;2023-04-22T00:44:21;14.10;99.90
7720;DHT22;3902;49.474;8.616;2023-04-22T00:46:47;14.10;99.90
7720;DHT22;3902;49.474;8.616;2023-04-22T00:49:14;14.00;99.90
7720;DHT22;3902;49.474;8.616;2023-04-22T00:51:40;13.90;99.90
7720;DHT22;3902;49.474;8.616;2023-04-22T00:54:05;13.90;99.90
7720;DHT22;3902;49.474;8.616;2023-04-22T00:56:32;13.90;99.90
7720;DHT22;3902;49.474;8.616;2023-04-22T00:59:00;13.90;99.90
7720;DHT22;3902;49.474;8.616;2023-04-22T01:01:26;13.80;99.90
7720;DHT22;3902;49.474;8.616;2023-04-22T01:03:52;13.80;99.90
7720;DHT22;3902;49.474;8.616;2023-04-22T01:06:18;13.80;99.90
7720;DHT22;3902;49.474;8.616;2023-04-22T01:08:45;13.70;99.90
7720;DHT22;3902;49.474;8.616;2023-04-22T01:11:11;13.80;99.90
7720;DHT22;3902;49.474;8.616;2023-04-22T01:13:36;13.80;99.90
7720;DHT22;3902;49.474;8.616;2023-04-22T01:16:04;13.70;99.90
7720;DHT22;3902;49.474;8.616;2023-04-22T01:18:34;13.70;99.90
7720;DHT22;3902;49.474;8.616;2023-04-22T01:21:00;13.70;99.90
7720;DHT22;3902;49.474;8.616;2023-04-22T01:23:26;13.70;99.90
7720;DHT22;3902;49.474;8.616;2023-04-22T01:25:52;13.70;99.90
7720;DHT22;3902;49.474;8.616;2023-04-22T01:28:18;13.70;99.90
7720;DHT22;3902;49.474;8.616;2023-04-22T01:30:43;13.70;99.90
7720;DHT22;3902;49.474;8.616;2023-04-22T01:33:10;13.70;99.90
7720;DHT22;3902;49.474;8.616;2023-04-22T01:35:36;13.60;99.90
7720;DHT22;3902;49.474;8.616;2023-04-22T01:38:04;13.70;99.90
7720;DHT22;3902;49.474;8.616;2023-04-22T01:40:32;13.60;99.90
7720;DHT22;3902;49.474;8.616;2023-04-22T01:42:59;13.60;99.90
7720;DHT22;3902;49.474;8.616;2023-04-22T01:45:26;13.50;99.90
7720;DHT22;3902;49.474;8.616;2023-04-22T01:47:52;13.60;99.90
7720;DHT22;3902;49.474;8.616;2023-04-22T01:50:18;13.60;99.90
7720;DHT22;3902;49.474;8.616;2023-04-22T01:52:43;13.60;99.90
7720;DHT22;3902;49.474;8.616;2023-04-22T01:55:09;13.50;99.90
7720;DHT22;3902;49.474;8.616;2023-04-22T01:57:35;13.60;99.90
7720;DHT22;3902;49.474;8.616;2023-04-22T02:00:00;13.60;99.90
7720;DHT22;3902;49.474;8.616;2023-04-22T02:02:26;13.60;99.90
7720;DHT22;3902;49.474;8.616;2023-04-22T02:04:52;13.50;99.90
7720;DHT22;3902;49.474;8.616;2023-04-22T02:07:17;13.50;99.90
7720;DHT22;3902;49.474;8.616;2023-04-22T02:09:43;13.40;99.90
7720;DHT22;3902;49.474;8.616;2023-04-22T02:12:09;13.50;99.90
7720;DHT22;3902;49.474;8.616;2023-04-22T02:14:34;13.40;99.90
7720;DHT22;3902;49.474;8.616;2023-04-22T02:17:00;13.40;99.90
7720;DHT22;3902;49.474;8.616;2023-04-22T02:19:27;13.40;99.90
7720;DHT22;3902;49.474;8.616;2023-04-22T02:21:52;13.40;99.90
7720;DHT22;3902;49.474;8.616;2023-04-22T02:24:18;13.40;99.90
7720;DHT22;3902;49.474;8.616;2023-04-22T02:26:43;13.40;99.90
7720;DHT22;3902;49.474;8.616;2023-04-22T02:29:09;13.30;99.90
7720;DHT22;3902;49.474;8.616;2023-04-22T02:31:34;13.30;99.90
7720;DHT22;3902;49.474;8.616;2023-04-22T02:34:00;13.30;99.90
7720;DHT22;3902;49.474;8.616;2023-04-22T02:36:25;13.30;99.90
7720;DHT22;3902;49.474;8.616;2023-04-22T02:38:52;13.30;99.90
7720;DHT22;3902;49.474;8.616;2023-04-22T02:41:17;13.20;99.90
7720;DHT22;3902;49.474;8.616;2023-04-22T02:43:43;13.20;99.90
7720;DHT22;3902;49.474;8.616;2023-04-22T02:46:11;13.20;99.90
7720;DHT22;3902;49.474;8.616;2023-04-22T02:48:38;13.20;99.90
7720;DHT22;3902;49.474;8.616;2023-04-22T02:51:04;13.20;99.90
7720;DHT22;3902;49.474;8.616;2023-04-22T02:53:30;13.20;99.90
7720;DHT22;3902;49.474;8.616;2023-04-22T02:55:56;13.20;99.90
7720;DHT22;3902;49.474;8.616;2023-04-22T02:58:22;13.20;99.90
7720;DHT22;3902;49.474;8.616;2023-04-22T03:00:48;13.20;99.90
7720;DHT22;3902;49.474;8.616;2023-04-22T03:03:14;13.20;99.90
7720;DHT22;3902;49.474;8.616;2023-04-22T03:05:39;13.20;99.90
7720;DHT22;3902;49.474;8.616;2023-04-22T03:08:05;13.10;99.90
7720;DHT22;3902;49.474;8.616;2023-04-22T03:10:31;13.10;99.90
7720;DHT22;3902;49.474;8.616;2023-04-22T03:12:57;13.10;99.90
7720;DHT22;3902;49.474;8.616;2023-04-22T03:15:22;13.10;99.90
7720;DHT22;3902;49.474;8.616;2023-04-22T03:17:48;13.00;99.90
7720;DHT22;3902;49.474;8.616;2023-04-22T03:20:14;13.00;99.90
7720;DHT22;3902;49.474;8.616;2023-04-22T03:22:39;12.90;99.90
7720;DHT22;3902;49.474;8.616;2023-04-22T03:25:05;13.00;99.90
7720;DHT22;3902;49.474;8.616;2023-04-22T03:27:31;13.00;99.90
7720;DHT22;3902;49.474;8.616;2023-04-22T03:29:57;13.00;99.90
7720;DHT22;3902;49.474;8.616;2023-04-22T03:32:22;12.90;99.90
7720;DHT22;3902;49.474;8.616;2023-04-22T03:34:48;12.90;99.90
7720;DHT22;3902;49.474;8.616;2023-04-22T03:37:13;12.90;99.90
7720;DHT22;3902;49.474;8.616;2023-04-22T03:39:39;12.80;99.90
7720;DHT22;3902;49.474;8.616;2023-04-22T03:42:05;12.80;99.90
7720;DHT22;3902;49.474;8.616;2023-04-22T03:44:30;12.80;99.90
7720;DHT22;3902;49.474;8.616;2023-04-22T03:46:55;12.80;99.90
7720;DHT22;3902;49.474;8.616;2023-04-22T03:49:21;12.80;99.90
7720;DHT22;3902;49.474;8.616;2023-04-22T03:51:46;12.70;99.90
7720;DHT22;3902;49.474;8.616;2023-04-22T03:54:12;12.70;99.90
7720;DHT22;3902;49.474;8.616;2023-04-22T03:56:37;12.70;99.90
7720;DHT22;3902;49.474;8.616;2023-04-22T03:59:03;12.60;99.90
7720;DHT22;3902;49.474;8.616;2023-04-22T04:01:29;12.50;99.90
7720;DHT22;3902;49.474;8.616;2023-04-22T04:03:54;12.50;99.90
7720;DHT22;3902;49.474;8.616;2023-04-22T04:06:20;12.50;99.90
7720;DHT22;3902;49.474;8.616;2023-04-22T04:08:46;12.50;99.90
7720;DHT22;3902;49.474;8.616;2023-04-22T04:11:11;12.40;99.90
7720;DHT22;3902;49.474;8.616;2023-04-22T04:13:37;12.40;99.90
7720;DHT22;3902;49.474;8.616;2023-04-22T04:16:02;12.40;99.90
7720;DHT22;3902;49.474;8.616;2023-04-22T04:18:28;12.40;99.90
7720;DHT22;3902;49.474;8.616;2023-04-22T04:20:54;12.30;99.90
7720;DHT22;3902;49.474;8.616;2023-04-22T04:23:19;12.30;99.90
7720;DHT22;3902;49.474;8.616;2023-04-22T04:25:45;12.30;99.90
7720;DHT22;3902;49.474;8.616;2023-04-22T04:28:10;12.20;99.90
7720;DHT22;3902;49.474;8.616;2023-04-22T04:30:37;12.20;99.90
7720;DHT22;3902;49.474;8.616;2023-04-22T04:33:03;12.20;99.90
7720;DHT22;3902;49.474;8.616;2023-04-22T04:35:32;12.20;99.90
7720;DHT22;3902;49.474;8.616;2023-04-22T04:37:59;12.20;99.90
7720;DHT22;3902;49.474;8.616;2023-04-22T04:40:25;12.10;99.90
7720;DHT22;3902;49.474;8.616;2023-04-22T04:42:53;12.20;99.90
7720;DHT22;3902;49.474;8.616;2023-04-22T04:45:20;12.10;99.90
7720;DHT22;3902;49.474;8.616;2023-04-22T04:47:46;12.10;99.90
7720;DHT22;3902;49.474;8.616;2023-04-22T04:50:15;12.10;99.90
7720;DHT22;3902;49.474;8.616;2023-04-22T04:52:40;12.10;99.90
7720;DHT22;3902;49.474;8.616;2023-04-22T04:55:06;12.10;99.90
7720;DHT22;3902;49.474;8.616;2023-04-22T04:57:32;12.10;99.90
7720;DHT22;3902;49.474;8.616;2023-04-22T04:59:57;12.10;99.90
7720;DHT22;3902;49.474;8.616;2023-04-22T05:02:23;12.10;99.90
7720;DHT22;3902;49.474;8.616;2023-04-22T05:04:48;12.10;99.90
7720;DHT22;3902;49.474;8.616;2023-04-22T05:07:14;12.10;99.90
7720;DHT22;3902;49.474;8.616;2023-04-22T05:09:40;12.10;99.90
7720;DHT22;3902;49.474;8.616;2023-04-22T05:12:05;12.10;99.90
7720;DHT22;3902;49.474;8.616;2023-04-22T05:14:31;12.20;99.90
7720;DHT22;3902;49.474;8.616;2023-04-22T05:16:56;12.20;99.90
7720;DHT22;3902;49.474;8.616;2023-04-22T05:19:22;12.30;99.90
7720;DHT22;3902;49.474;8.616;2023-04-22T05:21:47;12.20;99.90
7720;DHT22;3902;49.474;8.616;2023-04-22T05:24:13;12.30;99.90
7720;DHT22;3902;49.474;8.616;2023-04-22T05:26:38;12.40;99.90
7720;DHT22;3902;49.474;8.616;2023-04-22T05:29:04;12.50;99.90
7720;DHT22;3902;49.474;8.616;2023-04-22T05:31:31;12.40;99.90
7720;DHT22;3902;49.474;8.616;2023-04-22T05:33:56;12.50;99.90
7720;DHT22;3902;49.474;8.616;2023-04-22T05:36:22;12.50;99.90
7720;DHT22;3902;49.474;8.616;2023-04-22T05:38:47;12.50;99.90
7720;DHT22;3902;49.474;8.616;2023-04-22T05:41:13;12.50;99.90
7720;DHT22;3902;49.474;8.616;2023-04-22T05:43:39;12.60;99.90
7720;DHT22;3902;49.474;8.616;2023-04-22T05:46:04;12.50;99.90
7720;DHT22;3902;49.474;8.616;2023-04-22T05:48:30;12.50;99.90
7720;DHT22;3902;49.474;8.616;2023-04-22T05:50:55;12.50;99.90
7720;DHT22;3902;49.474;8.616;2023-04-22T05:53:21;12.50;99.90
7720;DHT22;3902;49.474;8.616;2023-04-22T05:55:46;12.50;99.90
7720;DHT22;3902;49.474;8.616;2023-04-22T05:58:12;12.50;99.90
7720;DHT22;3902;49.474;8.616;2023-04-22T06:00:37;12.50;99.90
7720;DHT22;3902;49.474;8.616;2023-04-22T06:03:03;12.50;99.90
7720;DHT22;3902;49.474;8.616;2023-04-22T06:05:28;12.50;99.90
7720;DHT22;3902;49.474;8.616;2023-04-22T06:07:54;12.50;99.90
7720;DHT22;3902;49.474;8.616;2023-04-22T06:10:20;12.50;99.90
7720;DHT22;3902;49.474;8.616;2023-04-22T06:12:45;12.50;99.90
7720;DHT22;3902;49.474;8.616;2023-04-22T06:15:11;12.50;99.90
7720;DHT22;3902;49.474;8.616;2023-04-22T06:17:36;12.60;99.90
7720;DHT22;3902;49.474;8.616;2023-04-22T06:20:02;12.60;99.90
7720;DHT22;3902;49.474;8.616;2023-04-22T06:22:27;12.60;99.90
7720;DHT22;3902;49.474;8.616;2023-04-22T06:24:53;12.70;99.90
7720;DHT22;3902;49.474;8.616;2023-04-22T06:27:18;12.70;99.90
7720;DHT22;3902;49.474;8.616;2023-04-22T06:29:44;12.70;99.90
7720;DHT22;3902;49.474;8.616;2023-04-22T06:32:09;12.80;99.90
7720;DHT22;3902;49.474;8.616;2023-04-22T06:34:35;12.80;99.90
7720;DHT22;3902;49.474;8.616;2023-04-22T06:37:03;12.90;99.90
7720;DHT22;3902;49.474;8.616;2023-04-22T06:39:28;13.00;99.90
7720;DHT22;3902;49.474;8.616;2023-04-22T06:41:54;13.00;99.90
7720;DHT22;3902;49.474;8.616;2023-04-22T06:44:20;13.10;99.90
7720;DHT22;3902;49.474;8.616;2023-04-22T06:46:45;13.20;99.90
7720;DHT22;3902;49.474;8.616;2023-04-22T06:49:11;13.20;99.90
7720;DHT22;3902;49.474;8.616;2023-04-22T06:51:36;13.30;99.90
7720;DHT22;3902;49.474;8.616;2023-04-22T06:54:02;13.30;99.90
7720;DHT22;3902;49.474;8.616;2023-04-22T06:56:28;13.30;99.90
7720;DHT22;3902;49.474;8.616;2023-04-22T06:58:54;13.40;99.90
7720;DHT22;3902;49.474;8.616;2023-04-22T07:01:19;13.40;99.90
7720;DHT22;3902;49.474;8.616;2023-04-22T07:03:45;13.50;99.90
7720;DHT22;3902;49.474;8.616;2023-04-22T07:06:11;13.50;99.90
7720;DHT22;3902;49.474;8.616;2023-04-22T07:08:36;13.50;99.90
7720;DHT22;3902;49.474;8.616;2023-04-22T07:11:02;13.60;99.90
7720;DHT22;3902;49.474;8.616;2023-04-22T07:13:27;13.60;99.90
7720;DHT22;3902;49.474;8.616;2023-04-22T07:15:53;13.70;99.90
7720;DHT22;3902;49.474;8.616;2023-04-22T07:18:19;13.70;99.90
7720;DHT22;3902;49.474;8.616;2023-04-22T07:20:44;13.80;99.90
7720;DHT22;3902;49.474;8.616;2023-04-22T07:23:10;13.80;99.90
7720;DHT22;3902;49.474;8.616;2023-04-22T07:25:35;13.90;99.90
7720;DHT22;3902;49.474;8.616;2023-04-22T07:28:01;13.90;99.90
7720;DHT22;3902;49.474;8.616;2023-04-22T07:30:26;14.00;99.90
7720;DHT22;3902;49.474;8.616;2023-04-22T07:32:52;14.00;99.90
7720;DHT22;3902;49.474;8.616;2023-04-22T07:35:17;14.00;99.90
7720;DHT22;3902;49.474;8.616;2023-04-22T07:37:43;14.10;99.90
7720;DHT22;3902;49.474;8.616;2023-04-22T07:40:09;14.20;99.90
7720;DHT22;3902;49.474;8.616;2023-04-22T07:42:37;14.20;99.90
7720;DHT22;3902;49.474;8.616;2023-04-22T07:45:03;14.20;99.90
7720;DHT22;3902;49.474;8.616;2023-04-22T07:47:29;14.30;99.90
7720;DHT22;3902;49.474;8.616;2023-04-22T07:49:54;14.40;99.90
7720;DHT22;3902;49.474;8.616;2023-04-22T07:52:20;14.40;99.90
7720;DHT22;3902;49.474;8.616;2023-04-22T07:54:45;14.40;99.90
7720;DHT22;3902;49.474;8.616;2023-04-22T07:57:11;14.50;99.90
7720;DHT22;3902;49.474;8.616;2023-04-22T07:59:37;14.60;99.90
7720;DHT22;3902;49.474;8.616;2023-04-22T08:02:02;14.60;99.90
7720;DHT22;3902;49.474;8.616;2023-04-22T08:04:28;14.70;99.90
7720;DHT22;3902;49.474;8.616;2023-04-22T08:06:53;14.80;99.90
7720;DHT22;3902;49.474;8.616;2023-04-22T08:09:19;14.90;99.90
7720;DHT22;3902;49.474;8.616;2023-04-22T08:11:45;15.00;99.90
7720;DHT22;3902;49.474;8.616;2023-04-22T08:14:10;15.10;99.90
7720;DHT22;3902;49.474;8.616;2023-04-22T08:16:37;15.20;99.90
7720;DHT22;3902;49.474;8.616;2023-04-22T08:19:02;15.30;99.90
7720;DHT22;3902;49.474;8.616;2023-04-22T08:21:28;15.30;99.90
7720;DHT22;3902;49.474;8.616;2023-04-22T08:23:53;15.50;99.90
7720;DHT22;3902;49.474;8.616;2023-04-22T08:26:19;15.60;99.90
7720;DHT22;3902;49.474;8.616;2023-04-22T08:28:45;15.60;99.90
7720;DHT22;3902;49.474;8.616;2023-04-22T08:31:11;15.60;99.90
7720;DHT22;3902;49.474;8.616;2023-04-22T08:33:39;15.70;99.90
7720;DHT22;3902;49.474;8.616;2023-04-22T08:36:06;15.70;99.90
7720;DHT22;3902;49.474;8.616;2023-04-22T08:38:33;15.70;99.90
7720;DHT22;3902;49.474;8.616;2023-04-22T08:40:58;15.80;99.90
7720;DHT22;3902;49.474;8.616;2023-04-22T08:43:24;15.90;99.90
7720;DHT22;3902;49.474;8.616;2023-04-22T08:45:51;15.90;99.90
7720;DHT22;3902;49.474;8.616;2023-04-22T08:48:18;16.00;99.90
7720;DHT22;3902;49.474;8.616;2023-04-22T08:50:43;16.10;99.90
7720;DHT22;3902;49.474;8.616;2023-04-22T08:53:12;16.10;99.90
7720;DHT22;3902;49.474;8.616;2023-04-22T08:55:38;16.20;99.90
7720;DHT22;3902;49.474;8.616;2023-04-22T08:58:05;16.30;99.90
7720;DHT22;3902;49.474;8.616;2023-04-22T09:00:31;16.30;99.90
7720;DHT22;3902;49.474;8.616;2023-04-22T09:03:00;16.40;99.90
7720;DHT22;3902;49.474;8.616;2023-04-22T09:05:27;16.40;99.90
7720;DHT22;3902;49.474;8.616;2023-04-22T09:07:53;16.50;99.90
7720;DHT22;3902;49.474;8.616;2023-04-22T09:10:19;16.60;99.90
7720;DHT22;3902;49.474;8.616;2023-04-22T09:12:45;16.70;99.90
7720;DHT22;3902;49.474;8.616;2023-04-22T09:15:11;16.80;99.90
7720;DHT22;3902;49.474;8.616;2023-04-22T09:17:37;16.90;99.90
7720;DHT22;3902;49.474;8.616;2023-04-22T09:20:05;17.00;99.90
7720;DHT22;3902;49.474;8.616;2023-04-22T09:23:00;17.10;99.90
7720;DHT22;3902;49.474;8.616;2023-04-22T09:25:26;17.10;99.90
7720;DHT22;3902;49.474;8.616;2023-04-22T09:27:54;17.20;99.90
7720;DHT22;3902;49.474;8.616;2023-04-22T09:30:34;17.20;99.90
7720;DHT22;3902;49.474;8.616;2023-04-22T09:33:03;17.20;99.90
7720;DHT22;3902;49.474;8.616;2023-04-22T09:35:34;17.20;99.90
7720;DHT22;3902;49.474;8.616;2023-04-22T09:38:02;17.30;99.90
7720;DHT22;3902;49.474;8.616;2023-04-22T09:40:29;17.30;99.90
7720;DHT22;3902;49.474;8.616;2023-04-22T09:42:56;17.30;99.90
7720;DHT22;3902;49.474;8.616;2023-04-22T09:45:33;17.40;99.90
7720;DHT22;3902;49.474;8.616;2023-04-22T09:48:23;17.50;99.90
7720;DHT22;3902;49.474;8.616;2023-04-22T09:50:49;17.70;99.90
7720;DHT22;3902;49.474;8.616;2023-04-22T09:53:17;17.70;99.90
7720;DHT22;3902;49.474;8.616;2023-04-22T09:55:47;17.80;99.90
7720;DHT22;3902;49.474;8.616;2023-04-22T09:58:15;17.80;99.90
7720;DHT22;3902;49.474;8.616;2023-04-22T10:00:52;18.00;99.90
7720;DHT22;3902;49.474;8.616;2023-04-22T10:03:17;18.00;99.90
7720;DHT22;3902;49.474;8.616;2023-04-22T10:05:43;18.10;99.90
7720;DHT22;3902;49.474;8.616;2023-04-22T10:08:10;18.10;99.90
7720;DHT22;3902;49.474;8.616;2023-04-22T10:10:36;18.10;99.90
7720;DHT22;3902;49.474;8.616;2023-04-22T10:13:02;18.10;99.90
7720;DHT22;3902;49.474;8.616;2023-04-22T10:15:54;18.10;99.90
7720;DHT22;3902;49.474;8.616;2023-04-22T10:18:23;18.20;99.90
7720;DHT22;3902;49.474;8.616;2023-04-22T10:20:50;18.30;99.90
7720;DHT22;3902;49.474;8.616;2023-04-22T10:23:18;18.40;99.90
7720;DHT22;3902;49.474;8.616;2023-04-22T10:25:48;18.50;99.90
7720;DHT22;3902;49.474;8.616;2023-04-22T10:28:16;18.60;99.90
7720;DHT22;3902;49.474;8.616;2023-04-22T10:30:42;18.80;99.90
7720;DHT22;3902;49.474;8.616;2023-04-22T10:38:41;19.30;99.90
7720;DHT22;3902;49.474;8.616;2023-04-22T10:41:29;19.40;99.90
7720;DHT22;3902;49.474;8.616;2023-04-22T10:43:57;19.60;99.90
7720;DHT22;3902;49.474;8.616;2023-04-22T10:51:46;20.10;99.90
7720;DHT22;3902;49.474;8.616;2023-04-22T10:57:18;20.40;99.90
7720;DHT22;3902;49.474;8.616;2023-04-22T10:59:54;20.50;99.90
7720;DHT22;3902;49.474;8.616;2023-04-22T11:02:21;20.80;99.90
7720;DHT22;3902;49.474;8.616;2023-04-22T11:04:47;21.20;99.90
7720;DHT22;3902;49.474;8.616;2023-04-22T11:17:31;24.20;99.90
7720;DHT22;3902;49.474;8.616;2023-04-22T11:19:58;24.50;99.90
7720;DHT22;3902;49.474;8.616;2023-04-22T11:22:24;24.40;98.90
7720;DHT22;3902;49.474;8.616;2023-04-22T11:24:56;24.60;97.80
7720;DHT22;3902;49.474;8.616;2023-04-22T11:27:23;24.50;96.40
7720;DHT22;3902;49.474;8.616;2023-04-22T11:30:06;24.70;96.20
7720;DHT22;3902;49.474;8.616;2023-04-22T11:32:40;24.90;95.30
7720;DHT22;3902;49.474;8.616;2023-04-22T11:35:08;24.70;94.00
7720;DHT22;3902;49.474;8.616;2023-04-22T11:37:42;24.90;94.10
7720;DHT22;3902;49.474;8.616;2023-04-22T11:40:09;24.90;93.00
7720;DHT22;3902;49.474;8.616;2023-04-22T11:42:38;24.90;92.90
7720;DHT22;3902;49.474;8.616;2023-04-22T11:45:05;24.90;92.20
7720;DHT22;3902;49.474;8.616;2023-04-22T11:47:31;24.90;91.50
7720;DHT22;3902;49.474;8.616;2023-04-22T11:49:58;25.00;92.10
7720;DHT22;3902;49.474;8.616;2023-04-22T11:52:25;24.70;91.10
7720;DHT22;3902;49.474;8.616;2023-04-22T11:55:03;24.80;91.60
7720;DHT22;3902;49.474;8.616;2023-04-22T11:57:35;24.80;89.60
7720;DHT22;3902;49.474;8.616;2023-04-22T12:00:00;24.80;90.00
7720;DHT22;3902;49.474;8.616;2023-04-22T12:02:26;25.10;88.90
7720;DHT22;3902;49.474;8.616;2023-04-22T12:04:51;25.50;89.00
7720;DHT22;3902;49.474;8.616;2023-04-22T12:07:17;25.40;88.20
7720;DHT22;3902;49.474;8.616;2023-04-22T12:09:42;25.60;88.00
7720;DHT22;3902;49.474;8.616;2023-04-22T12:12:08;25.60;89.80
7720;DHT22;3902;49.474;8.616;2023-04-22T12:14:34;25.20;86.50
7720;DHT22;3902;49.474;8.616;2023-04-22T12:17:03;25.10;88.70
7720;DHT22;3902;49.474;8.616;2023-04-22T12:19:29;25.20;87.10
7720;DHT22;3902;49.474;8.616;2023-04-22T12:21:55;25.50;89.40
7720;DHT22;3902;49.474;8.616;2023-04-22T12:24:27;25.50;87.70
7720;DHT22;3902;49.474;8.616;2023-04-22T12:26:53;25.30;87.50
7720;DHT22;3902;49.474;8.616;2023-04-22T12:29:26;25.10;86.00
7720;DHT22;3902;49.474;8.616;2023-04-22T12:31:52;24.60;86.60
7720;DHT22;3902;49.474;8.616;2023-04-22T12:34:17;24.20;88.20
7720;DHT22;3902;49.474;8.616;2023-04-22T12:36:43;23.70;88.50
7720;DHT22;3902;49.474;8.616;2023-04-22T12:39:08;23.40;90.00
7720;DHT22;3902;49.474;8.616;2023-04-22T12:41:35;23.10;90.50
7720;DHT22;3902;49.474;8.616;2023-04-22T12:44:00;22.80;88.70
7720;DHT22;3902;49.474;8.616;2023-04-22T12:46:26;22.60;90.00
7720;DHT22;3902;49.474;8.616;2023-04-22T12:48:51;22.40;89.60
7720;DHT22;3902;49.474;8.616;2023-04-22T12:51:17;22.10;89.30
7720;DHT22;3902;49.474;8.616;2023-04-22T12:53:42;21.80;89.70
7720;DHT22;3902;49.474;8.616;2023-04-22T12:56:08;21.60;90.40
7720;DHT22;3902;49.474;8.616;2023-04-22T12:58:33;21.60;91.00
7720;DHT22;3902;49.474;8.616;2023-04-22T13:00:59;21.50;91.30
7720;DHT22;3902;49.474;8.616;2023-04-22T13:03:24;21.50;91.60
7720;DHT22;3902;49.474;8.616;2023-04-22T13:05:51;21.40;91.40
7720;DHT22;3902;49.474;8.616;2023-04-22T13:08:17;21.30;91.60
7720;DHT22;3902;49.474;8.616;2023-04-22T13:10:42;21.20;91.50
7720;DHT22;3902;49.474;8.616;2023-04-22T13:13:08;21.10;91.40
7720;DHT22;3902;49.474;8.616;2023-04-22T13:15:34;21.10;91.70
7720;DHT22;3902;49.474;8.616;2023-04-22T13:18:00;20.90;91.90
7720;DHT22;3902;49.474;8.616;2023-04-22T13:20:26;20.80;92.00
7720;DHT22;3902;49.474;8.616;2023-04-22T13:22:52;20.80;92.70
7720;DHT22;3902;49.474;8.616;2023-04-22T13:25:17;20.80;92.60
7720;DHT22;3902;49.474;8.616;2023-04-22T13:27:43;20.70;92.70
7720;DHT22;3902;49.474;8.616;2023-04-22T13:30:09;20.70;93.10
7720;DHT22;3902;49.474;8.616;2023-04-22T13:32:34;20.70;93.40
7720;DHT22;3902;49.474;8.616;2023-04-22T13:35:00;20.70;93.70
7720;DHT22;3902;49.474;8.616;2023-04-22T13:37:25;20.60;93.50
7720;DHT22;3902;49.474;8.616;2023-04-22T13:39:51;20.60;93.60
7720;DHT22;3902;49.474;8.616;2023-04-22T13:42:17;20.60;93.80
7720;DHT22;3902;49.474;8.616;2023-04-22T13:44:42;20.60;93.40
7720;DHT22;3902;49.474;8.616;2023-04-22T13:47:08;20.50;92.80
7720;DHT22;3902;49.474;8.616;2023-04-22T13:49:33;20.40;93.00
7720;DHT22;3902;49.474;8.616;2023-04-22T13:51:59;20.30;93.00
7720;DHT22;3902;49.474;8.616;2023-04-22T13:54:25;20.30;93.30
7720;DHT22;3902;49.474;8.616;2023-04-22T13:56:52;20.30;93.10
7720;DHT22;3902;49.474;8.616;2023-04-22T13:59:18;20.20;92.90
7720;DHT22;3902;49.474;8.616;2023-04-22T14:01:43;20.20;93.20
7720;DHT22;3902;49.474;8.616;2023-04-22T14:04:09;20.20;93.40
7720;DHT22;3902;49.474;8.616;2023-04-22T14:06:35;20.20;93.20
7720;DHT22;3902;49.474;8.616;2023-04-22T14:09:01;20.20;93.50
7720;DHT22;3902;49.474;8.616;2023-04-22T14:11:28;20.30;93.50
7720;DHT22;3902;49.474;8.616;2023-04-22T14:13:54;20.30;93.50
7720;DHT22;3902;49.474;8.616;2023-04-22T14:16:19;20.30;93.20
7720;DHT22;3902;49.474;8.616;2023-04-22T14:18:45;20.30;93.50
7720;DHT22;3902;49.474;8.616;2023-04-22T14:21:11;20.30;92.40
7720;DHT22;3902;49.474;8.616;2023-04-22T14:23:38;20.20;92.20
7720;DHT22;3902;49.474;8.616;2023-04-22T14:26:05;20.20;91.70
7720;DHT22;3902;49.474;8.616;2023-04-22T14:28:31;20.20;92.00
7720;DHT22;3902;49.474;8.616;2023-04-22T14:30:57;20.10;91.30
7720;DHT22;3902;49.474;8.616;2023-04-22T14:33:23;20.10;91.30
7720;DHT22;3902;49.474;8.616;2023-04-22T14:35:50;20.00;91.30
7720;DHT22;3902;49.474;8.616;2023-04-22T14:38:17;20.00;91.30
7720;DHT22;3902;49.474;8.616;2023-04-22T14:40:43;20.00;91.30
7720;DHT22;3902;49.474;8.616;2023-04-22T14:43:08;20.00;91.60
7720;DHT22;3902;49.474;8.616;2023-04-22T14:45:34;20.10;91.90
7720;DHT22;3902;49.474;8.616;2023-04-22T14:48:00;20.10;91.60
7720;DHT22;3902;49.474;8.616;2023-04-22T14:50:26;20.10;91.60
7720;DHT22;3902;49.474;8.616;2023-04-22T14:52:52;20.10;92.00
7720;DHT22;3902;49.474;8.616;2023-04-22T14:55:18;20.10;92.00
7720;DHT22;3902;49.474;8.616;2023-04-22T14:57:43;20.10;91.90
7720;DHT22;3902;49.474;8.616;2023-04-22T15:00:10;20.10;92.10
7720;DHT22;3902;49.474;8.616;2023-04-22T15:02:36;20.20;92.30
7720;DHT22;3902;49.474;8.616;2023-04-22T15:05:02;20.20;91.80
7720;DHT22;3902;49.474;8.616;2023-04-22T15:07:28;20.30;92.30
7720;DHT22;3902;49.474;8.616;2023-04-22T15:09:53;20.40;91.90
7720;DHT22;3902;49.474;8.616;2023-04-22T15:12:20;20.40;91.80
7720;DHT22;3902;49.474;8.616;2023-04-22T15:14:45;20.50;92.20
7720;DHT22;3902;49.474;8.616;2023-04-22T15:17:11;20.50;92.20
7720;DHT22;3902;49.474;8.616;2023-04-22T15:19:37;20.50;91.30
7720;DHT22;3902;49.474;8.616;2023-04-22T15:22:03;20.50;91.70
7720;DHT22;3902;49.474;8.616;2023-04-22T15:24:28;20.60;92.00
7720;DHT22;3902;49.474;8.616;2023-04-22T15:26:54;20.70;91.60
7720;DHT22;3902;49.474;8.616;2023-04-22T15:29:21;20.70;90.80
7720;DHT22;3902;49.474;8.616;2023-04-22T15:31:47;20.60;90.40
7720;DHT22;3902;49.474;8.616;2023-04-22T15:34:13;20.60;91.20
7720;DHT22;3902;49.474;8.616;2023-04-22T15:36:38;20.60;91.60
7720;DHT22;3902;49.474;8.616;2023-04-22T15:39:04;20.60;91.60
7720;DHT22;3902;49.474;8.616;2023-04-22T15:41:33;20.60;91.70
7720;DHT22;3902;49.474;8.616;2023-04-22T15:43:59;20.60;91.30
7720;DHT22;3902;49.474;8.616;2023-04-22T15:46:27;20.60;91.50
7720;DHT22;3902;49.474;8.616;2023-04-22T15:48:55;20.70;90.60
7720;DHT22;3902;49.474;8.616;2023-04-22T15:51:21;20.60;90.60
7720;DHT22;3902;49.474;8.616;2023-04-22T15:53:47;20.60;91.40
7720;DHT22;3902;49.474;8.616;2023-04-22T15:56:13;20.50;91.30
7720;DHT22;3902;49.474;8.616;2023-04-22T15:58:39;20.50;92.00
7720;DHT22;3902;49.474;8.616;2023-04-22T16:01:05;20.50;91.90
7720;DHT22;3902;49.474;8.616;2023-04-22T16:03:32;20.50;91.70
7720;DHT22;3902;49.474;8.616;2023-04-22T16:05:58;20.40;91.90
7720;DHT22;3902;49.474;8.616;2023-04-22T16:08:24;20.40;91.40
7720;DHT22;3902;49.474;8.616;2023-04-22T16:10:50;20.30;91.10
7720;DHT22;3902;49.474;8.616;2023-04-22T16:13:15;20.30;91.70
7720;DHT22;3902;49.474;8.616;2023-04-22T16:15:41;20.30;91.80
7720;DHT22;3902;49.474;8.616;2023-04-22T16:18:07;20.20;91.60
7720;DHT22;3902;49.474;8.616;2023-04-22T16:20:33;20.10;91.20